Time;durP1;ratioP1;P1;durP2;ratioP2;P2;SDS_P1;SDS_P2;PMS_P1;PMS_P2;Temp;Humidity;BMP_temperature;BMP_pressure;BME280_temperature;BME280_humidity;BME280_pressure;Samples;Min_cycle;Max_cycle;Signal;HPM_P1;HPM_P2
2022/08/27 00:00:25;;;;;;;;;11.50;9.75;;;;;26.46;100.00;101245.75;5059278;28;51525;-52
2022/08/27 00:03:10;;;;;;;;;16.75;9.75;;;;;26.47;100.00;101246.59;5060232;28;51059;-56
2022/08/27 00:05:54;;;;;;;;;11.75;9.75;;;;;26.49;100.00;101247.38;5059851;28;51206;-52
2022/08/27 00:08:43;;;;;;;;;11.50;9.75;;;;;26.48;100.00;101243.81;5060442;28;51005;-51
2022/08/27 00:11:28;;;;;;;;;13.25;10.00;;;;;26.44;100.00;101228.59;5075056;27;51215;-52
2022/08/27 00:14:13;;;;;;;;;8.50;8.25;;;;;26.45;100.00;101223.06;5080594;27;51171;-50
2022/08/27 00:16:58;;;;;;;;;15.75;10.00;;;;;26.46;100.00;101221.19;5080176;27;51560;-51
2022/08/27 00:19:42;;;;;;;;;18.25;11.00;;;;;26.42;100.00;101216.88;5064772;27;51049;-50
2022/08/27 00:22:27;;;;;;;;;14.50;11.75;;;;;26.43;100.00;101222.25;5060285;28;51073;-49
2022/08/27 00:25:12;;;;;;;;;15.00;11.25;;;;;26.44;100.00;101221.28;5072068;27;51569;-54
2022/08/27 00:27:56;;;;;;;;;14.75;10.00;;;;;26.45;100.00;101220.31;5079790;27;51075;-52
2022/08/27 00:30:41;;;;;;;;;10.00;8.75;;;;;26.47;100.00;101220.22;5080328;27;51191;-52
2022/08/27 00:33:26;;;;;;;;;12.00;9.00;;;;;26.45;100.00;101203.06;5080412;27;51072;-53
2022/08/27 00:36:11;;;;;;;;;15.25;11.75;;;;;26.47;100.00;101206.56;5079341;27;51539;-51
2022/08/27 00:38:55;;;;;;;;;14.00;11.00;;;;;26.50;100.00;101203.66;5075904;27;51551;-52
2022/08/27 00:41:42;;;;;;;;;11.50;9.75;;;;;26.50;100.00;101211.84;5069010;27;51337;-49
2022/08/27 00:44:27;;;;;;;;;12.00;11.00;;;;;26.46;100.00;101210.28;5072948;27;51068;-51
2022/08/27 00:47:15;;;;;;;;;17.00;12.75;;;;;26.45;100.00;101213.97;5072576;27;51554;-49
2022/08/27 00:50:07;;;;;;;;;13.75;8.75;;;;;26.40;100.00;101210.66;5072512;27;51174;-52
2022/08/27 00:52:55;;;;;;;;;13.75;10.50;;;;;26.36;100.00;101201.78;5068611;28;51107;-51
2022/08/27 00:55:50;;;;;;;;;13.50;8.75;;;;;26.33;100.00;101209.28;5071068;28;51020;-49
2022/08/27 00:58:47;;;;;;;;;15.75;11.75;;;;;26.30;100.00;101200.31;5067105;28;51121;-53
2022/08/27 01:01:33;;;;;;;;;13.75;9.00;;;;;26.27;100.00;101188.72;5069805;28;51519;-51
2022/08/27 01:04:18;;;;;;;;;16.00;9.25;;;;;26.32;100.00;101194.78;5070643;28;51143;-50
2022/08/27 01:07:04;;;;;;;;;10.00;9.50;;;;;26.31;100.00;101187.56;5071607;28;51416;-50
2022/08/27 01:09:49;;;;;;;;;9.25;7.50;;;;;26.27;100.00;101186.00;5070038;28;51096;-53
2022/08/27 01:12:34;;;;;;;;;14.50;10.00;;;;;26.19;100.00;101181.00;5066433;28;51142;-52
2022/08/27 01:15:19;;;;;;;;;9.00;8.00;;;;;26.13;100.00;101176.84;5069121;28;51569;-49
2022/08/27 01:18:05;;;;;;;;;10.75;10.75;;;;;26.11;100.00;101158.81;5067502;28;52192;-46
2022/08/27 01:21:03;;;;;;;;;12.25;9.50;;;;;26.05;100.00;101160.03;5066143;28;51132;-49
2022/08/27 01:24:00;;;;;;;;;9.25;9.00;;;;;26.06;100.00;101145.44;5068990;28;51184;-55
2022/08/27 01:26:45;;;;;;;;;18.75;10.50;;;;;26.08;100.00;101153.53;5058637;28;51592;-54
2022/08/27 01:29:30;;;;;;;;;17.75;10.25;;;;;26.10;100.00;101143.41;5058987;28;51021;-50
2022/08/27 01:32:18;;;;;;;;;11.25;10.25;;;;;26.14;100.00;101128.63;5058854;28;51119;-53
2022/08/27 01:35:06;;;;;;;;;13.25;12.50;;;;;26.17;100.00;101139.34;5057874;28;51112;-49
2022/08/27 01:37:54;;;;;;;;;11.25;7.25;;;;;26.12;100.00;101136.91;5058240;28;51143;-51
2022/08/27 01:40:38;;;;;;;;;11.50;8.75;;;;;26.12;100.00;101130.56;5058552;28;51557;-49
2022/08/27 01:43:22;;;;;;;;;12.25;10.75;;;;;26.08;100.00;101135.31;5062239;28;51612;-54
2022/08/27 01:46:07;;;;;;;;;10.50;9.75;;;;;26.11;100.00;101129.69;5061415;28;51224;-50
2022/08/27 01:48:52;;;;;;;;;14.00;9.75;;;;;26.15;100.00;101127.66;5062977;28;51061;-51
2022/08/27 01:51:36;;;;;;;;;17.50;11.75;;;;;26.16;100.00;101125.78;5060876;28;51109;-53
2022/08/27 01:54:21;;;;;;;;;11.00;10.25;;;;;26.14;100.00;101126.75;5062561;28;51381;-54
2022/08/27 01:57:05;;;;;;;;;10.00;8.00;;;;;26.17;100.00;101122.97;5061573;28;51057;-51
2022/08/27 01:59:50;;;;;;;;;13.00;8.75;;;;;26.10;100.00;101110.69;5067599;27;51151;-48
2022/08/27 02:02:34;;;;;;;;;11.00;9.75;;;;;26.09;100.00;101126.19;5075118;27;51257;-48
2022/08/27 02:05:20;;;;;;;;;14.75;10.50;;;;;26.06;100.00;101109.97;5070508;27;51493;-55
2022/08/27 02:08:05;;;;;;;;;12.00;10.50;;;;;26.03;100.00;101106.56;5061401;28;51534;-48
2022/08/27 02:10:50;;;;;;;;;8.00;7.00;;;;;25.91;100.00;101090.00;5061020;28;51185;-55
2022/08/27 02:13:36;;;;;;;;;16.50;10.50;;;;;25.96;100.00;101112.44;5062416;28;51211;-52
2022/08/27 02:16:20;;;;;;;;;15.00;9.25;;;;;25.90;100.00;101101.03;5062102;28;51530;-54
2022/08/27 02:19:05;;;;;;;;;16.00;9.00;;;;;25.86;100.00;101099.44;5061041;28;51114;-56
2022/08/27 02:21:50;;;;;;;;;9.75;9.25;;;;;25.83;100.00;101089.63;5060842;28;51113;-54
2022/08/27 02:24:34;;;;;;;;;14.50;11.00;;;;;25.79;100.00;101093.50;5061766;28;51057;-51
2022/08/27 02:27:20;;;;;;;;;13.00;8.50;;;;;25.75;100.00;101102.88;5062145;28;51200;-52
2022/08/27 02:30:05;;;;;;;;;15.25;10.00;;;;;25.71;100.00;101091.28;5061540;28;51161;-49
2022/08/27 02:32:51;;;;;;;;;12.50;11.00;;;;;25.61;100.00;101080.06;5062114;28;51184;-50
2022/08/27 02:35:42;;;;;;;;;14.00;9.25;;;;;25.53;100.00;101080.53;5061599;28;51186;-47
2022/08/27 02:38:27;;;;;;;;;13.75;11.75;;;;;25.59;100.00;101092.88;5067916;27;51063;-49
2022/08/27 02:41:11;;;;;;;;;16.25;12.25;;;;;25.60;100.00;101089.19;5059091;28;51174;-52
2022/08/27 02:43:56;;;;;;;;;17.50;10.00;;;;;25.56;100.00;101073.13;5059297;28;51359;-48
2022/08/27 02:46:41;;;;;;;;;16.75;11.25;;;;;25.64;100.00;101078.97;5073936;27;51426;-50
2022/08/27 02:49:25;;;;;;;;;14.75;12.25;;;;;25.65;100.00;101083.47;5079659;27;51179;-54
2022/08/27 02:52:11;;;;;;;;;12.75;9.75;;;;;25.70;100.00;101084.06;5078992;27;51110;-55
2022/08/27 02:54:56;;;;;;;;;10.75;9.75;;;;;25.68;100.00;101078.69;5079542;27;51223;-50
2022/08/27 02:57:41;;;;;;;;;17.00;10.25;;;;;25.74;100.00;101079.31;5081441;27;51196;-46
2022/08/27 03:00:27;;;;;;;;;12.75;9.75;;;;;25.72;100.00;101076.66;5080072;27;51138;-51
2022/08/27 03:03:12;;;;;;;;;12.50;11.00;;;;;25.71;100.00;101082.22;5080398;27;51201;-49
2022/08/27 03:05:58;;;;;;;;;17.75;10.00;;;;;25.73;100.00;101083.84;5081476;27;51531;-50
2022/08/27 03:08:42;;;;;;;;;11.00;9.75;;;;;25.73;100.00;101088.44;5081481;27;51059;-52
2022/08/27 03:11:28;;;;;;;;;7.00;7.00;;;;;25.66;100.00;101087.94;5081369;27;51448;-52
2022/08/27 03:14:13;;;;;;;;;15.75;11.00;;;;;25.57;100.00;101096.69;5081031;27;51163;-50
2022/08/27 03:18:16;;;;;;;;;24.75;11.00;;;;;25.43;100.00;101100.25;5081783;27;51160;-50
2022/08/27 03:20:05;;;;;;;;;15.25;12.25;;;;;25.23;100.00;101075.09;5081237;27;51586;-54
2022/08/27 03:22:49;;;;;;;;;13.25;9.00;;;;;25.26;100.00;101091.22;5075147;27;51474;-54
2022/08/27 03:25:34;;;;;;;;;10.25;9.00;;;;;25.24;100.00;101090.41;5060422;28;51394;-50
2022/08/27 03:28:27;;;;;;;;;9.50;8.00;;;;;25.19;100.00;101087.13;5059884;28;51131;-51
2022/08/27 03:31:25;;;;;;;;;12.00;10.75;;;;;25.17;100.00;101091.75;5059719;28;51471;-54
2022/08/27 03:34:09;;;;;;;;;14.75;9.50;;;;;25.09;100.00;101077.75;5076873;27;51193;-49
2022/08/27 03:36:54;;;;;;;;;15.50;15.00;;;;;25.04;100.00;101073.44;5080101;27;51311;-54
2022/08/27 03:39:38;;;;;;;;;14.50;11.75;;;;;25.03;100.00;101082.56;5080684;27;51078;-46
2022/08/27 03:42:22;;;;;;;;;15.00;12.25;;;;;25.04;100.00;101080.75;5080988;27;51415;-48
2022/08/27 03:45:08;;;;;;;;;19.50;11.50;;;;;25.06;100.00;101076.09;5080638;27;51181;-48
2022/08/27 03:47:53;;;;;;;;;16.25;12.50;;;;;25.06;100.00;101052.44;5080936;27;51333;-50
2022/08/27 03:50:39;;;;;;;;;17.75;12.75;;;;;25.12;100.00;101053.91;5080284;27;51166;-54
2022/08/27 03:53:24;;;;;;;;;10.00;9.75;;;;;25.13;100.00;101047.50;5079649;27;51277;-51
2022/08/27 03:56:09;;;;;;;;;15.75;11.00;;;;;25.21;100.00;101045.19;5079485;27;51562;-50
2022/08/27 05:24:31;;;;;;;;;13.50;12.25;;;;;25.52;100.00;101100.56;4329227;32;51153;-52
2022/08/27 05:27:16;;;;;;;;;17.50;13.00;;;;;25.57;100.00;101094.81;5077156;28;51079;-52
2022/08/27 05:30:01;;;;;;;;;29.75;23.25;;;;;25.69;100.00;101115.00;5077191;28;51565;-50
2022/08/27 05:32:45;;;;;;;;;27.25;16.75;;;;;25.73;100.00;101112.97;5070217;28;51128;-49
2022/08/27 05:35:31;;;;;;;;;16.25;13.25;;;;;25.79;100.00;101118.94;5077025;28;51509;-54
2022/08/27 05:38:17;;;;;;;;;23.00;18.25;;;;;25.82;100.00;101129.63;5076814;28;51177;-51
2022/08/27 05:41:13;;;;;;;;;20.25;15.50;;;;;25.86;100.00;101134.88;5077333;28;51058;-53
2022/08/27 05:44:00;;;;;;;;;19.50;14.00;;;;;25.83;100.00;101128.66;5077057;28;51216;-52
2022/08/27 05:46:44;;;;;;;;;16.50;13.00;;;;;25.83;100.00;101125.91;5077032;28;51078;-54
2022/08/27 05:49:30;;;;;;;;;18.75;13.75;;;;;25.81;100.00;101133.34;5076532;28;51225;-53
2022/08/27 05:52:15;;;;;;;;;25.75;16.00;;;;;25.79;100.00;101140.72;5077006;28;51200;-51
2022/08/27 05:54:59;;;;;;;;;15.00;12.50;;;;;25.68;100.00;101129.63;5076821;28;51170;-55
2022/08/27 05:57:44;;;;;;;;;18.75;13.00;;;;;25.71;100.00;101123.09;5068610;28;51197;-54
2022/08/27 06:03:33;;;;;;;;;15.25;14.00;;;;;25.51;100.00;101130.63;5076109;28;51082;-50
2022/08/27 06:06:18;;;;;;;;;19.00;14.00;;;;;25.51;100.00;101136.94;5076962;28;51236;-55
2022/08/27 06:09:04;;;;;;;;;25.50;14.50;;;;;25.48;100.00;101139.88;5076518;28;51102;-56
2022/08/27 06:11:49;;;;;;;;;15.75;13.50;;;;;25.47;100.00;101145.41;5076381;28;51231;-52
2022/08/27 06:14:35;;;;;;;;;19.75;14.75;;;;;25.52;100.00;101155.06;5074414;28;51165;-52
2022/08/27 06:17:20;;;;;;;;;18.25;14.25;;;;;25.52;100.00;101140.56;5072955;28;51172;-54
2022/08/27 06:20:04;;;;;;;;;26.25;19.00;;;;;25.61;100.00;101152.78;5076013;28;51178;-52
2022/08/27 06:22:49;;;;;;;;;16.00;11.25;;;;;25.67;100.00;101163.28;5075567;28;51179;-53
2022/08/27 06:25:34;;;;;;;;;19.75;16.25;;;;;25.68;100.00;101168.63;5061572;28;51058;-55
2022/08/27 06:28:24;;;;;;;;;20.00;12.50;;;;;25.70;100.00;101168.56;5062369;28;51094;-55
2022/08/27 06:31:17;;;;;;;;;13.50;10.50;;;;;25.72;100.00;101173.91;5062621;28;51134;-55
2022/08/27 06:34:05;;;;;;;;;15.50;11.00;;;;;25.73;100.00;101168.34;5062132;28;51516;-53
2022/08/27 06:36:52;;;;;;;;;21.50;17.50;;;;;25.77;100.00;101174.47;5061694;28;51281;-53
2022/08/27 06:39:38;;;;;;;;;9.00;9.00;;;;;25.76;100.00;101164.59;5061898;28;51272;-52
2022/08/27 06:42:22;;;;;;;;;19.25;12.25;;;;;25.83;100.00;101175.00;5062125;28;51136;-55
2022/08/27 06:45:07;;;;;;;;;16.50;11.50;;;;;25.90;100.00;101178.22;5062169;28;51321;-52
2022/08/27 06:47:54;;;;;;;;;21.00;14.25;;;;;25.97;100.00;101184.19;5061927;28;51161;-54
2022/08/27 06:50:40;;;;;;;;;15.00;11.75;;;;;26.03;100.00;101199.28;5060668;28;51182;-55
2022/08/27 06:53:25;;;;;;;;;15.75;13.00;;;;;26.06;100.00;101191.78;5061853;28;51268;-51
2022/08/27 06:56:11;;;;;;;;;14.25;12.50;;;;;26.05;100.00;101205.53;5062238;28;51173;-53
2022/08/27 06:58:57;;;;;;;;;15.25;9.50;;;;;25.99;100.00;101201.31;5061541;28;51529;-51
2022/08/27 07:01:47;;;;;;;;;16.75;11.75;;;;;26.00;100.00;101203.09;5061566;28;51626;-50
2022/08/27 07:04:32;;;;;;;;;16.75;11.50;;;;;26.02;100.00;101206.59;5061745;28;51109;-55
2022/08/27 07:07:16;;;;;;;;;15.00;9.00;;;;;26.07;100.00;101212.63;5058115;28;51046;-54
2022/08/27 07:10:01;;;;;;;;;14.75;11.00;;;;;26.12;100.00;101217.81;5061005;28;51163;-55
2022/08/27 07:12:45;;;;;;;;;15.00;10.00;;;;;26.11;100.00;101222.41;5061221;28;51093;-54
2022/08/27 07:15:31;;;;;;;;;14.75;11.75;;;;;26.09;100.00;101227.09;5061457;28;51121;-54
2022/08/27 07:18:15;;;;;;;;;12.00;10.75;;;;;26.10;100.00;101226.13;5056944;28;51144;-51
2022/08/27 07:21:02;;;;;;;;;13.50;11.00;;;;;26.17;100.00;101232.06;5060500;28;51211;-53
2022/08/27 07:23:50;;;;;;;;;16.25;11.75;;;;;26.16;100.00;101241.22;5060844;28;51516;-56
2022/08/27 07:26:38;;;;;;;;;15.75;11.00;;;;;26.09;100.00;101232.53;5061550;28;51465;-54
2022/08/27 07:29:23;;;;;;;;;17.00;13.50;;;;;26.12;100.00;101237.81;5061039;28;51140;-54
2022/08/27 07:32:07;;;;;;;;;17.00;10.75;;;;;26.10;100.00;101260.69;5061277;28;51175;-50
2022/08/27 07:34:52;;;;;;;;;13.00;11.50;;;;;26.13;100.00;101260.50;5060642;28;51433;-53
2022/08/27 07:37:38;;;;;;;;;9.25;3.00;;;;;26.12;100.00;101246.00;5060682;28;51118;-55
2022/08/27 07:40:23;;;;;;;;;21.50;15.00;;;;;26.21;100.00;101257.31;5061131;28;51199;-53
2022/08/27 07:46:12;;;;;;;;;14.50;10.25;;;;;26.23;100.00;101269.88;5060187;28;51381;-55
2022/08/27 07:48:56;;;;;;;;;13.00;11.75;;;;;26.26;100.00;101274.25;5060509;28;51331;-52
2022/08/27 07:51:41;;;;;;;;;20.75;11.50;;;;;26.21;100.00;101271.81;5060808;28;51495;-54
2022/08/27 07:54:26;;;;;;;;;21.00;13.25;;;;;26.24;100.00;101276.22;5060659;28;51207;-54
2022/08/27 07:57:10;;;;;;;;;16.75;12.50;;;;;26.28;100.00;101284.13;5060779;28;51093;-51
2022/08/27 07:59:55;;;;;;;;;18.25;15.75;;;;;26.34;100.00;101276.50;5060554;28;51396;-52
2022/08/27 08:02:43;;;;;;;;;15.00;13.75;;;;;26.39;100.00;101288.03;5060664;28;51343;-53
2022/08/27 08:05:28;;;;;;;;;20.00;13.25;;;;;26.47;100.00;101288.44;5060532;28;51529;-54
2022/08/27 08:08:13;;;;;;;;;19.25;12.75;;;;;26.56;100.00;101276.06;5060242;28;51147;-52
2022/08/27 08:10:57;;;;;;;;;17.00;13.25;;;;;26.68;100.00;101288.91;5060731;28;51009;-52
2022/08/27 08:13:43;;;;;;;;;12.25;9.25;;;;;26.83;100.00;101299.88;5060118;28;51467;-51
2022/08/27 08:16:28;;;;;;;;;13.25;9.75;;;;;27.00;100.00;101290.63;5060247;28;51475;-51
2022/08/27 08:19:12;;;;;;;;;22.75;13.25;;;;;27.20;100.00;101305.69;5060058;28;51106;-51
2022/08/27 08:21:57;;;;;;;;;15.00;8.50;;;;;27.36;100.00;101306.47;5060472;28;51239;-52
2022/08/27 08:24:41;;;;;;;;;23.50;14.75;;;;;27.41;100.00;101308.88;5059970;28;51241;-53
2022/08/27 08:27:26;;;;;;;;;9.75;5.00;;;;;27.33;100.00;101309.38;5059818;28;51209;-54
2022/08/27 08:30:11;;;;;;;;;8.75;4.25;;;;;27.13;100.00;101315.28;5060164;28;51477;-51
2022/08/27 08:32:56;;;;;;;;;15.25;12.75;;;;;26.94;100.00;101318.28;5059608;28;51161;-54
2022/08/27 08:35:40;;;;;;;;;24.25;13.00;;;;;26.79;100.00;101318.31;5056572;28;52412;-55
2022/08/27 08:38:25;;;;;;;;;19.75;13.50;;;;;26.61;100.00;101334.81;5059701;28;51184;-50
2022/08/27 08:41:33;;;;;;;;;8.50;8.00;;;;;26.37;100.00;101318.13;5060028;28;51461;-50
2022/08/27 08:44:39;;;;;;;;;9.00;8.50;;;;;26.18;100.00;101340.22;5059886;28;51069;-55
2022/08/27 08:47:46;;;;;;;;;13.75;9.75;;;;;26.17;100.00;101326.63;5059778;28;50968;-54
2022/08/27 08:50:46;;;;;;;;;18.50;12.75;;;;;26.26;100.00;101331.53;5058249;28;51171;-55
2022/08/27 08:53:53;;;;;;;;;10.75;9.00;;;;;26.36;100.00;101319.09;5056818;28;51285;-54
2022/08/27 08:56:46;;;;;;;;;15.25;9.75;;;;;26.46;100.00;101335.78;5056866;28;51530;-50
2022/08/27 08:59:37;;;;;;;;;11.50;9.50;;;;;26.60;100.00;101324.91;5054505;28;51116;-50
2022/08/27 09:29:19;;;;;;;;;10.75;8.75;;;;;27.19;100.00;101318.50;4360516;32;51129;-85
2022/08/27 09:32:07;;;;;;;;;14.25;9.25;;;;;28.07;100.00;101358.31;5061408;27;51084;-85
2022/08/27 09:34:55;;;;;;;;;10.50;9.50;;;;;28.29;100.00;101332.25;5082834;27;52041;-85
2022/08/27 09:37:47;;;;;;;;;11.25;8.75;;;;;28.43;100.00;101334.00;5080032;27;51055;-86
2022/08/27 09:40:38;;;;;;;;;11.75;8.25;;;;;28.77;100.00;101361.78;5083413;27;51207;-86
2022/08/27 09:43:30;;;;;;;;;15.50;11.00;;;;;28.65;100.00;101333.34;5083136;27;51292;-86
2022/08/27 09:46:25;;;;;;;;;14.50;10.00;;;;;28.85;100.00;101347.53;5082310;27;51092;-85
2022/08/27 09:49:17;;;;;;;;;9.00;6.50;;;;;28.88;100.00;101331.78;5084127;27;51195;-86
2022/08/27 09:52:03;;;;;;;;;13.75;9.75;;;;;29.31;100.00;101373.47;5083551;27;51445;-85
2022/08/27 09:54:54;;;;;;;;;4.50;4.50;;;;;29.38;100.00;101370.19;5083501;27;51223;-87
2022/08/27 09:57:43;;;;;;;;;14.00;10.00;;;;;29.25;100.00;101365.69;5081203;27;51325;-85
2022/08/27 10:00:54;;;;;;;;;14.75;11.25;;;;;29.23;100.00;101379.50;5078469;27;51231;-85
2022/08/27 10:03:41;;;;;;;;;10.25;9.75;;;;;29.12;100.00;101376.66;5087290;27;51304;-86
2022/08/27 10:06:27;;;;;;;;;21.25;15.00;;;;;29.10;100.00;101375.91;5083910;27;51255;-86
2022/08/27 10:09:15;;;;;;;;;12.00;9.00;;;;;29.06;100.00;101372.50;5083057;27;52362;-85
2022/08/27 10:12:12;;;;;;;;;13.00;9.75;;;;;28.85;100.00;101370.31;5097983;27;51235;-85
2022/08/27 10:15:00;;;;;;;;;15.75;10.00;;;;;28.65;100.00;101368.09;5076644;27;51167;-85
2022/08/27 10:17:55;;;;;;;;;16.75;13.00;;;;;28.51;100.00;101380.00;5082530;27;51542;-85
2022/08/27 10:21:03;;;;;;;;;18.25;14.25;;;;;28.48;100.00;101381.09;5081146;27;51164;-86
2022/08/27 10:24:06;;;;;;;;;15.50;7.50;;;;;28.42;100.00;101370.56;5082840;27;51148;-86
2022/08/27 10:27:16;;;;;;;;;16.00;11.50;;;;;28.30;100.00;101366.84;5095354;27;51189;-85
2022/08/27 10:30:14;;;;;;;;;16.75;10.50;;;;;28.18;100.00;101374.00;5082839;27;51162;-86
2022/08/27 10:33:13;;;;;;;;;13.50;10.25;;;;;28.02;100.00;101362.34;5069008;27;51062;-86
2022/08/27 10:36:07;;;;;;;;;17.00;12.25;;;;;27.88;100.00;101371.47;5082803;27;51167;-87
2022/08/27 10:39:07;;;;;;;;;14.25;11.50;;;;;27.64;100.00;101367.53;5069256;27;51241;-86
2022/08/27 10:42:04;;;;;;;;;9.25;6.25;;;;;27.34;100.00;101352.13;5083190;27;51205;-87
2022/08/27 10:45:25;;;;;;;;;10.75;7.00;;;;;27.40;100.00;101377.31;5083690;27;50943;-86
2022/08/27 10:48:35;;;;;;;;;17.25;10.25;;;;;27.19;100.00;101353.13;5067562;27;51267;-86
2022/08/27 10:51:32;;;;;;;;;17.50;10.75;;;;;27.35;100.00;101364.81;5085041;27;51025;-86
2022/08/27 10:54:17;;;;;;;;;12.25;10.00;;;;;27.49;100.00;101360.34;5066314;27;51178;-88
2022/08/27 10:57:17;;;;;;;;;13.25;8.25;;;;;27.62;100.00;101346.75;5089913;27;51144;-88
2022/08/27 11:00:12;;;;;;;;;14.00;12.50;;;;;27.87;100.00;101367.84;5083473;27;51493;-86
2022/08/27 11:03:10;;;;;;;;;14.00;11.00;;;;;28.16;100.00;101362.28;5069202;27;51206;-87
2022/08/27 11:05:58;;;;;;;;;15.25;11.50;;;;;28.34;100.00;101354.69;5068047;27;51254;-86
2022/08/27 11:08:49;;;;;;;;;12.00;9.00;;;;;28.22;100.00;101328.16;5065625;27;51267;-87
2022/08/27 11:11:38;;;;;;;;;22.50;14.50;;;;;28.52;100.00;101357.13;5064407;27;51809;-87
2022/08/27 11:14:36;;;;;;;;;16.00;12.25;;;;;28.66;100.00;101350.69;5068445;27;51161;-86
2022/08/27 11:17:32;;;;;;;;;16.50;12.25;;;;;28.72;100.00;101353.00;5061620;27;51196;-86
2022/08/27 11:20:20;;;;;;;;;20.00;11.00;;;;;28.80;100.00;101347.00;5082782;27;51458;-86
2022/08/27 11:23:30;;;;;;;;;16.00;13.00;;;;;28.88;100.00;101344.56;5082618;27;51365;-86
2022/08/27 11:26:15;;;;;;;;;21.75;12.25;;;;;28.77;100.00;101317.97;5082908;27;51169;-87
2022/08/27 11:29:07;;;;;;;;;20.50;13.50;;;;;28.73;100.00;101302.75;5068073;27;51164;-86
2022/08/27 11:32:02;;;;;;;;;18.25;13.50;;;;;28.84;100.00;101330.22;5068138;27;51207;-86
2022/08/27 11:35:16;;;;;;;;;15.00;10.00;;;;;28.81;100.00;101335.91;5065928;27;51426;-86
2022/08/27 11:38:26;;;;;;;;;22.25;15.00;;;;;28.82;100.00;101334.94;5068154;27;51069;-87
2022/08/27 11:41:15;;;;;;;;;17.25;11.25;;;;;28.88;100.00;101331.78;5081532;27;51081;-87
2022/08/27 11:44:01;;;;;;;;;17.75;12.25;;;;;28.83;100.00;101305.69;5068505;27;51036;-87
2022/08/27 11:47:05;;;;;;;;;21.25;13.00;;;;;28.85;100.00;101328.34;5067985;27;51479;-87
2022/08/27 11:49:55;;;;;;;;;20.75;14.00;;;;;28.85;100.00;101314.66;5068288;27;51123;-86
2022/08/27 11:52:53;;;;;;;;;18.00;13.00;;;;;28.87;100.00;101316.31;5067398;27;51143;-87
2022/08/27 11:55:39;;;;;;;;;17.00;13.75;;;;;28.75;100.00;101318.06;5067757;27;51128;-86
2022/08/27 11:58:28;;;;;;;;;16.75;12.75;;;;;28.59;100.00;101300.97;5068170;27;51172;-86
2022/08/27 12:01:30;;;;;;;;;12.00;12.00;;;;;28.22;100.00;101271.59;5067670;27;51465;-86
2022/08/27 12:04:29;;;;;;;;;17.50;13.50;;;;;28.12;100.00;101298.72;5066170;27;51242;-87
2022/08/27 12:07:16;;;;;;;;;16.75;13.00;;;;;27.99;100.00;101301.38;5081971;27;51199;-86
2022/08/27 12:10:28;;;;;;;;;22.00;14.75;;;;;27.94;100.00;101294.47;5082180;27;51181;-86
2022/08/27 12:13:46;;;;;;;;;16.25;12.50;;;;;28.13;100.00;101284.03;5067160;27;51071;-86
2022/08/27 12:16:40;;;;;;;;;13.25;12.00;;;;;28.21;100.00;101278.03;5079864;27;51207;-86
2022/08/27 12:19:47;;;;;;;;;13.75;12.75;;;;;28.18;100.00;101256.38;5081388;27;51381;-86
2022/08/27 12:26:14;;;;;;;;;19.75;13.00;;;;;28.24;100.00;101274.22;5079521;27;51169;-87
2022/08/27 12:29:27;;;;;;;;;15.00;12.25;;;;;28.12;100.00;101267.75;5081278;27;51069;-86
2022/08/27 12:32:31;;;;;;;;;15.00;10.25;;;;;28.10;100.00;101258.78;5067605;27;51646;-87
2022/08/27 12:35:22;;;;;;;;;20.00;14.75;;;;;28.05;100.00;101258.16;5079538;27;51250;-86
2022/08/27 12:38:12;;;;;;;;;17.75;14.75;;;;;28.03;100.00;101254.69;5067250;27;51162;-87
2022/08/27 12:40:59;;;;;;;;;18.25;13.50;;;;;28.07;100.00;101256.19;5081186;27;51404;-86
2022/08/27 12:43:43;;;;;;;;;19.00;15.00;;;;;28.22;100.00;101238.75;5067677;27;51258;-86
2022/08/27 12:46:28;;;;;;;;;13.75;9.50;;;;;28.37;100.00;101227.69;5067372;27;51151;-87
2022/08/27 12:49:17;;;;;;;;;24.75;15.75;;;;;28.56;100.00;101247.31;5067032;27;50997;-87
2022/08/27 12:52:11;;;;;;;;;25.50;15.75;;;;;28.77;100.00;101233.09;5067378;27;51003;-86
2022/08/27 12:55:31;;;;;;;;;11.75;7.00;;;;;28.92;100.00;101212.75;5067334;27;51206;-86
2022/08/27 12:58:41;;;;;;;;;20.00;13.00;;;;;29.08;100.00;101222.59;5083203;27;51177;-91
2022/08/27 13:01:44;;;;;;;;;18.75;13.25;;;;;29.22;100.00;101216.94;5079361;27;50958;-91
2022/08/27 13:04:52;;;;;;;;;;;;;;;;;;;;;
2022/08/27 13:07:47;;;;;;;;;21.25;14.00;;;;;29.51;100.00;101215.75;5104733;27;50837;-91
2022/08/27 13:11:05;;;;;;;;;;;;;;;;;;;;;
2022/08/27 13:14:10;;;;;;;;;15.00;13.75;;;;;29.63;100.00;101159.09;5094624;27;51225;-91
2022/08/27 13:17:07;;;;;;;;;24.50;15.50;;;;;30.02;100.00;101198.13;5084346;28;51191;-90
2022/08/27 13:20:00;;;;;;;;;16.75;12.75;;;;;29.89;100.00;101145.19;5081695;28;51076;-92
2022/08/27 13:22:45;;;;;;;;;18.50;14.25;;;;;29.90;100.00;101147.81;5069700;28;51240;-92
2022/08/27 13:25:33;;;;;;;;;17.50;11.50;;;;;30.19;100.00;101187.66;5084745;28;50910;-92
2022/08/27 13:28:26;;;;;;;;;22.00;13.25;;;;;30.20;100.00;101187.56;5079993;28;51001;-91
2022/08/27 13:31:11;;;;;;;;;23.00;16.00;;;;;30.22;100.00;101181.94;5070755;28;51159;-91
2022/08/27 13:34:31;;;;;;;;;17.25;10.50;;;;;30.23;100.00;101186.44;5097148;28;50668;-92
2022/08/27 13:37:31;;;;;;;;;12.50;10.00;;;;;30.19;100.00;101183.06;5081292;28;51239;-89
2022/08/27 13:40:29;;;;;;;;;28.50;16.50;;;;;30.10;100.00;101178.31;5068060;28;51054;-91
2022/08/27 13:43:19;;;;;;;;;22.75;13.00;;;;;29.67;100.00;101125.84;5067574;28;51181;-91
2022/08/27 13:46:34;;;;;;;;;19.75;14.00;;;;;29.78;100.00;101173.50;5064768;28;51263;-90
2022/08/27 13:49:47;;;;;;;;;19.25;13.75;;;;;29.36;100.00;101132.81;5094092;28;51448;-91
2022/08/27 13:54:11;;;;;;;;;21.00;14.00;;;;;29.40;100.00;101160.88;5073325;28;51628;-91
2022/08/27 13:55:52;;;;;;;;;21.50;15.75;;;;;28.92;100.00;101122.38;5094244;28;50952;-91
2022/08/27 13:58:36;;;;;;;;;20.00;11.25;;;;;28.98;100.00;101162.13;5082357;28;51128;-91
2022/08/27 14:01:30;;;;;;;;;17.50;14.00;;;;;28.86;100.00;101161.19;5063770;28;51207;-90
2022/08/27 14:04:26;;;;;;;;;16.00;10.50;;;;;28.79;100.00;101157.13;5074328;27;51214;-91
2022/08/27 14:07:22;;;;;;;;;10.25;8.75;;;;;28.76;100.00;101152.78;5086166;27;51186;-92
2022/08/27 14:10:32;;;;;;;;;17.75;13.25;;;;;28.70;100.00;101155.06;5085661;27;50998;-91
2022/08/27 14:13:21;;;;;;;;;19.50;12.00;;;;;28.69;100.00;101156.03;5093242;27;51149;-91
2022/08/27 14:16:28;;;;;;;;;14.75;10.00;;;;;28.60;100.00;101163.09;5097965;27;51990;-92
2022/08/27 14:19:28;;;;;;;;;18.50;11.75;;;;;28.52;100.00;101151.84;5082108;27;51078;-91
2022/08/27 14:22:13;;;;;;;;;21.50;16.00;;;;;28.35;100.00;101133.91;5075466;27;51116;-91
2022/08/27 14:24:58;;;;;;;;;20.00;13.00;;;;;28.48;100.00;101153.91;5076576;27;50998;-90
2022/08/27 14:27:43;;;;;;;;;24.50;15.25;;;;;28.53;100.00;101151.72;5083667;27;50496;-91
2022/08/27 14:30:28;;;;;;;;;20.75;15.25;;;;;28.58;100.00;101144.03;5079548;27;50937;-92
2022/08/27 14:33:13;;;;;;;;;16.75;12.00;;;;;28.56;100.00;101146.03;5083414;27;50968;-92
2022/08/27 14:35:58;;;;;;;;;15.50;12.00;;;;;28.36;100.00;101108.28;5084992;27;50476;-92
2022/08/27 14:39:47;;;;;;;;;16.25;13.75;;;;;28.66;100.00;101143.47;5085043;27;51110;-91
2022/08/27 14:42:33;;;;;;;;;15.25;11.75;;;;;28.43;100.00;101094.03;5061283;27;51243;-89
2022/08/27 14:45:18;;;;;;;;;20.50;12.00;;;;;28.68;100.00;101129.69;5068897;27;51524;-88
2022/08/27 14:48:15;;;;;;;;;18.00;13.50;;;;;28.60;100.00;101103.72;5074288;27;51123;-88
2022/08/27 14:51:51;;;;;;;;;;;;;;;;;;;;;
2022/08/27 14:54:42;;;;;;;;;21.00;13.25;;;;;29.17;100.00;101122.38;5080875;27;51517;-85